createdAt,value
2018-08-13T00:01:02.798Z,44.50
2018-08-13T00:03:31.346Z,44.60
2018-08-13T00:05:59.687Z,44.60
2018-08-13T00:08:28.138Z,44.70
2018-08-13T00:10:56.534Z,44.90
2018-08-13T00:13:25.100Z,45.40
2018-08-13T00:15:53.483Z,44.40
2018-08-13T00:18:21.864Z,44.60
2018-08-13T00:20:50.350Z,45.30
2018-08-13T00:23:18.904Z,44.30
2018-08-13T00:25:47.373Z,44.10
2018-08-13T00:28:15.791Z,44.10
2018-08-13T00:30:44.309Z,44.20
2018-08-13T00:33:12.752Z,45.70
2018-08-13T00:35:41.133Z,45.60
2018-08-13T00:38:09.619Z,45.30
2018-08-13T00:40:37.967Z,45.30
2018-08-13T00:43:06.917Z,45.10
2018-08-13T00:45:35.363Z,45.00
2018-08-13T00:48:03.957Z,44.90
2018-08-13T00:50:32.331Z,44.70
2018-08-13T00:53:00.774Z,45.10
2018-08-13T00:55:29.791Z,44.80
2018-08-13T00:57:58.187Z,44.70
2018-08-13T01:00:26.764Z,45.20
2018-08-13T01:02:55.253Z,45.30
2018-08-13T01:05:23.690Z,45.60
2018-08-13T01:07:52.042Z,45.40
2018-08-13T01:10:21.887Z,45.30
2018-08-13T01:12:50.333Z,45.70
2018-08-13T01:15:19.679Z,46.20
2018-08-13T01:17:49.184Z,46.30
2018-08-13T01:20:19.314Z,46.10
2018-08-13T01:22:47.733Z,46.00
2018-08-13T01:25:18.328Z,45.70
2018-08-13T01:27:46.810Z,45.60
2018-08-13T01:30:17.206Z,45.20
2018-08-13T01:32:45.693Z,45.80
2018-08-13T01:35:14.186Z,45.60
2018-08-13T01:37:42.808Z,45.60
2018-08-13T01:40:12.000Z,45.60
2018-08-13T01:42:40.481Z,45.90
2018-08-13T01:45:10.964Z,45.80
2018-08-13T01:47:39.910Z,46.00
2018-08-13T01:50:12.110Z,45.90
2018-08-13T01:52:41.464Z,46.10
2018-08-13T01:55:10.682Z,45.50
2018-08-13T01:57:39.128Z,45.40
2018-08-13T02:00:14.474Z,45.50
2018-08-13T02:02:42.960Z,45.70
2018-08-13T02:05:11.311Z,45.70
2018-08-13T02:07:39.764Z,45.70
2018-08-13T02:10:10.559Z,46.00
2018-08-13T02:12:39.418Z,46.10
2018-08-13T02:15:07.881Z,46.40
2018-08-13T02:17:36.349Z,46.00
2018-08-13T02:20:07.342Z,46.00
2018-08-13T02:22:35.992Z,46.20
2018-08-13T02:25:05.780Z,46.00
2018-08-13T02:27:34.202Z,46.00
2018-08-13T02:30:02.905Z,46.00
2018-08-13T02:32:31.215Z,46.20
2018-08-13T02:34:59.561Z,46.00
2018-08-13T02:37:27.931Z,45.50
2018-08-13T02:39:56.257Z,45.60
2018-08-13T02:42:24.618Z,46.10
2018-08-13T02:44:52.985Z,46.50
2018-08-13T02:47:21.344Z,46.50
2018-08-13T02:49:49.689Z,46.30
2018-08-13T02:52:18.062Z,46.40
2018-08-13T02:54:46.378Z,46.80
2018-08-13T02:57:14.676Z,47.20
2018-08-13T02:59:42.964Z,47.20
2018-08-13T03:02:14.312Z,47.10
2018-08-13T03:04:42.739Z,46.90
2018-08-13T03:07:11.184Z,47.10
2018-08-13T03:09:39.549Z,46.40
2018-08-13T03:12:07.902Z,46.10
2018-08-13T03:14:36.243Z,46.30
2018-08-13T03:17:04.689Z,46.50
2018-08-13T03:19:33.023Z,46.10
2018-08-13T03:22:01.394Z,46.40
2018-08-13T03:24:29.822Z,46.40
2018-08-13T03:26:58.204Z,46.50
2018-08-13T03:29:26.549Z,46.50
2018-08-13T03:31:54.881Z,46.50
2018-08-13T03:34:23.279Z,46.10
2018-08-13T03:36:51.709Z,45.90
2018-08-13T03:39:20.077Z,45.80
2018-08-13T03:41:48.419Z,45.80
2018-08-13T03:44:16.790Z,45.30
2018-08-13T03:46:45.188Z,45.30
2018-08-13T03:49:13.473Z,45.60
2018-08-13T03:51:41.966Z,45.80
2018-08-13T03:54:10.404Z,46.00
2018-08-13T03:56:38.795Z,46.70
2018-08-13T03:59:07.167Z,46.60
2018-08-13T04:01:35.717Z,46.80
2018-08-13T04:04:04.130Z,46.90
2018-08-13T04:06:32.621Z,46.70
2018-08-13T04:09:00.924Z,46.60
2018-08-13T04:11:29.244Z,46.50
2018-08-13T04:13:57.612Z,46.80
2018-08-13T04:16:25.995Z,46.90
2018-08-13T04:18:54.889Z,46.70
2018-08-13T04:21:23.197Z,46.70
2018-08-13T04:23:51.572Z,46.90
2018-08-13T04:26:20.001Z,46.50
2018-08-13T04:28:48.489Z,46.80
2018-08-13T04:31:16.864Z,47.10
2018-08-13T04:33:45.289Z,47.10
2018-08-13T04:36:13.668Z,46.90
2018-08-13T04:38:42.052Z,46.30
2018-08-13T04:41:10.443Z,46.30
2018-08-13T04:43:38.948Z,46.10
2018-08-13T04:46:07.738Z,46.50
2018-08-13T04:48:36.179Z,46.70
2018-08-13T04:51:04.590Z,46.90
2018-08-13T04:53:32.998Z,45.80
2018-08-13T04:56:01.373Z,45.80
2018-08-13T04:58:29.712Z,45.20
2018-08-13T05:00:58.121Z,45.70
2018-08-13T05:03:26.461Z,45.30
2018-08-13T05:05:54.972Z,45.20
2018-08-13T05:08:23.405Z,44.70
2018-08-13T05:10:51.743Z,44.90
2018-08-13T05:13:20.172Z,44.80
2018-08-13T05:15:48.572Z,44.90
2018-08-13T05:18:16.926Z,44.90
2018-08-13T05:20:45.255Z,44.90
2018-08-13T05:23:13.658Z,45.10
2018-08-13T05:25:42.216Z,45.10
2018-08-13T05:28:10.681Z,45.30
2018-08-13T05:30:39.136Z,45.00
2018-08-13T05:33:07.567Z,45.30
2018-08-13T05:35:36.042Z,45.10
2018-08-13T05:38:04.541Z,45.20
2018-08-13T05:40:32.934Z,45.20
2018-08-13T05:43:01.357Z,44.90
2018-08-13T05:45:29.790Z,45.10
2018-08-13T05:47:58.196Z,44.80
2018-08-13T05:50:26.629Z,44.40
2018-08-13T05:52:55.122Z,44.20
2018-08-13T05:55:23.611Z,44.40
2018-08-13T05:57:52.097Z,44.00
2018-08-13T06:00:20.475Z,43.80
2018-08-13T06:02:48.902Z,43.50
2018-08-13T06:05:17.339Z,44.00
2018-08-13T06:07:45.678Z,44.00
2018-08-13T06:10:14.047Z,43.90
2018-08-13T06:12:42.561Z,43.80
2018-08-13T06:15:12.471Z,43.60
2018-08-13T06:17:40.972Z,43.50
2018-08-13T06:20:11.171Z,43.70
2018-08-13T06:22:40.870Z,43.90
2018-08-13T06:25:10.247Z,43.80
2018-08-13T06:27:38.672Z,43.30
2018-08-13T06:30:13.558Z,43.30
2018-08-13T06:32:42.456Z,43.80
2018-08-13T06:35:11.793Z,43.10
2018-08-13T06:37:41.289Z,43.50
2018-08-13T06:40:09.800Z,43.40
2018-08-13T06:42:38.729Z,43.20
2018-08-13T06:45:08.536Z,43.60
2018-08-13T06:47:37.674Z,43.40
2018-08-13T06:50:08.908Z,43.90
2018-08-13T06:52:37.412Z,42.60
2018-08-13T06:55:12.557Z,43.20
2018-08-13T06:57:41.357Z,42.10
2018-08-13T07:00:12.924Z,42.30
2018-08-13T07:02:41.615Z,42.10
2018-08-13T07:05:10.982Z,41.40
2018-08-13T07:07:40.174Z,41.20
2018-08-13T07:10:10.688Z,41.30
2018-08-13T07:12:40.856Z,41.10
2018-08-13T07:15:09.647Z,41.10
2018-08-13T07:17:38.109Z,41.20
2018-08-13T07:20:11.738Z,41.10
2018-08-13T07:22:40.201Z,41.00
2018-08-13T07:25:09.314Z,40.90
2018-08-13T07:27:38.888Z,41.10
2018-08-13T07:30:10.847Z,40.80
2018-08-13T07:32:39.345Z,41.00
2018-08-13T07:35:08.165Z,40.70
2018-08-13T07:37:36.600Z,39.90
2018-08-13T07:40:08.906Z,39.00
2018-08-13T07:42:37.385Z,39.00
2018-08-13T07:45:06.892Z,38.90
2018-08-13T07:47:35.332Z,38.80
2018-08-13T07:50:04.757Z,38.80
2018-08-13T07:52:33.186Z,38.90
2018-08-13T07:55:02.039Z,39.80
2018-08-13T07:57:30.405Z,40.10
2018-08-13T07:59:58.916Z,40.30
2018-08-13T08:02:27.514Z,40.70
2018-08-13T08:04:55.937Z,41.00
2018-08-13T08:07:24.359Z,41.20
2018-08-13T08:09:52.785Z,41.40
2018-08-13T08:12:21.799Z,41.60
2018-08-13T08:14:50.313Z,42.10
2018-08-13T08:17:18.721Z,42.30
2018-08-13T08:19:47.198Z,42.90
2018-08-13T08:22:16.494Z,45.00
2018-08-13T08:24:44.974Z,47.90
2018-08-13T08:27:13.433Z,47.80
2018-08-13T08:29:41.812Z,49.80
2018-08-13T08:32:10.353Z,50.00
2018-08-13T08:34:38.866Z,50.10
2018-08-13T08:37:07.461Z,50.30
2018-08-13T08:39:36.014Z,51.20
2018-08-13T08:42:04.533Z,51.50
2018-08-13T08:44:32.960Z,52.10
2018-08-13T08:47:01.425Z,52.90
2018-08-13T08:49:30.057Z,54.30
2018-08-13T08:51:58.627Z,54.80
2018-08-13T08:54:27.031Z,54.60
2018-08-13T08:56:55.557Z,54.60
2018-08-13T08:59:24.222Z,53.90
2018-08-13T09:01:52.581Z,53.60
2018-08-13T09:04:21.138Z,56.20
2018-08-13T09:06:49.556Z,56.40
2018-08-13T09:09:17.997Z,57.70
2018-08-13T09:11:46.550Z,58.00
2018-08-13T09:14:15.244Z,58.40
2018-08-13T09:16:47.315Z,58.60
2018-08-13T09:19:32.519Z,58.40
2018-08-13T09:22:19.346Z,58.20
2018-08-13T09:25:04.677Z,57.70
2018-08-13T09:27:49.825Z,57.80
2018-08-13T09:30:34.994Z,58.90
2018-08-13T09:33:20.082Z,58.50
2018-08-13T09:35:48.539Z,59.30
2018-08-13T09:38:17.101Z,60.30
2018-08-13T09:40:45.515Z,60.50
2018-08-13T09:43:13.930Z,60.20
2018-08-13T09:45:42.362Z,60.00
2018-08-13T09:48:10.845Z,59.60
2018-08-13T09:50:39.201Z,59.60
2018-08-13T09:53:07.681Z,59.10
2018-08-13T09:55:36.990Z,59.30
2018-08-13T09:58:06.660Z,58.60
2018-08-13T10:00:40.772Z,58.80
2018-08-13T10:03:09.125Z,58.60
2018-08-13T10:05:37.485Z,58.40
2018-08-13T10:08:06.337Z,58.20
2018-08-13T10:10:34.783Z,58.50
2018-08-13T10:13:04.153Z,57.60
2018-08-13T10:15:33.165Z,57.40
2018-08-13T10:18:01.793Z,57.50
2018-08-13T10:20:30.322Z,57.80
2018-08-13T10:22:58.700Z,58.40
2018-08-13T10:25:27.998Z,58.40
2018-08-13T10:27:57.514Z,57.90
2018-08-13T10:30:26.020Z,57.90
2018-08-13T10:32:54.548Z,57.60
2018-08-13T10:35:22.934Z,57.30
2018-08-13T10:37:51.341Z,56.70
2018-08-13T10:40:19.858Z,56.80
2018-08-13T10:42:48.330Z,56.80
2018-08-13T10:45:17.011Z,57.20
2018-08-13T10:47:45.453Z,56.80
2018-08-13T10:50:14.885Z,56.90
2018-08-13T10:52:43.486Z,56.90
2018-08-13T10:55:14.837Z,57.70
2018-08-13T10:57:44.340Z,59.60
2018-08-13T11:00:15.136Z,60.60
2018-08-13T11:02:43.608Z,59.90
2018-08-13T11:05:13.062Z,59.40
2018-08-13T11:07:41.659Z,59.90
2018-08-13T11:10:14.695Z,61.90
2018-08-13T11:12:43.101Z,63.20
2018-08-13T11:15:15.156Z,61.10
2018-08-13T11:17:43.984Z,63.50
2018-08-13T11:20:12.572Z,61.10
2018-08-13T11:22:41.869Z,62.50
2018-08-13T11:25:12.630Z,61.60
2018-08-13T11:27:41.190Z,61.90
2018-08-13T11:30:12.377Z,62.30
2018-08-13T11:32:40.954Z,62.40
2018-08-13T11:35:09.492Z,62.00
2018-08-13T11:37:38.025Z,59.80
2018-08-13T11:40:14.190Z,59.20
2018-08-13T11:42:42.885Z,59.20
2018-08-13T11:45:11.336Z,59.30
2018-08-13T11:47:40.185Z,58.00
2018-08-13T11:50:11.666Z,58.80
2018-08-13T11:52:40.330Z,58.70
2018-08-13T11:55:08.748Z,56.90
2018-08-13T11:57:37.210Z,58.00
2018-08-13T12:00:08.962Z,57.70
2018-08-13T12:02:38.104Z,57.20
2018-08-13T12:05:09.276Z,58.60
2018-08-13T12:07:37.799Z,57.20
2018-08-13T12:10:07.909Z,56.50
2018-08-13T12:12:36.516Z,56.50
2018-08-13T12:15:06.481Z,58.40
2018-08-13T12:17:34.901Z,58.00
2018-08-13T12:20:04.629Z,59.10
2018-08-13T12:22:33.042Z,59.70
2018-08-13T12:25:01.489Z,60.40
2018-08-13T12:27:29.967Z,60.80
2018-08-13T12:29:59.089Z,62.00
2018-08-13T12:32:27.469Z,62.30
2018-08-13T12:34:55.971Z,61.50
2018-08-13T12:37:24.394Z,61.60
2018-08-13T12:39:52.797Z,61.80
2018-08-13T12:42:21.199Z,62.10
2018-08-13T12:44:49.649Z,62.40
2018-08-13T12:47:18.004Z,62.60
2018-08-13T12:49:46.354Z,62.80
2018-08-13T12:52:15.671Z,62.40
2018-08-13T12:54:44.061Z,63.60
2018-08-13T12:57:12.535Z,63.80
2018-08-13T12:59:40.925Z,63.80
2018-08-13T13:02:09.418Z,64.40
2018-08-13T13:04:37.939Z,64.60
2018-08-13T13:07:06.357Z,65.40
2018-08-13T13:09:34.870Z,66.60
2018-08-13T13:12:03.346Z,64.50
2018-08-13T13:14:31.703Z,64.50
2018-08-13T13:17:00.101Z,64.90
2018-08-13T13:19:28.528Z,63.60
2018-08-13T13:21:56.974Z,61.80
2018-08-13T13:24:25.662Z,62.30
2018-08-13T13:26:54.087Z,60.70
2018-08-13T13:29:22.481Z,60.10
2018-08-13T13:31:50.851Z,59.30
2018-08-13T13:34:19.367Z,58.60
2018-08-13T13:36:47.804Z,56.90
2018-08-13T13:39:16.266Z,57.40
2018-08-13T13:41:44.783Z,55.30
2018-08-13T13:44:13.269Z,54.30
2018-08-13T13:46:41.765Z,54.30
2018-08-13T13:49:10.213Z,54.70
2018-08-13T13:51:38.877Z,53.40
2018-08-13T13:54:07.441Z,52.70
2018-08-13T13:56:35.858Z,52.50
2018-08-13T13:59:04.450Z,52.20
2018-08-13T14:01:32.907Z,51.90
2018-08-13T14:04:01.325Z,53.10
2018-08-13T14:06:29.682Z,53.60
2018-08-13T14:08:58.109Z,52.70
2018-08-13T14:11:26.494Z,51.50
2018-08-13T14:13:54.836Z,51.30
2018-08-13T14:16:23.390Z,50.70
2018-08-13T14:18:51.875Z,50.40
2018-08-13T14:21:20.381Z,50.60
2018-08-13T14:23:48.978Z,50.40
2018-08-13T14:26:17.356Z,50.80
2018-08-13T14:28:45.697Z,51.00
2018-08-13T14:31:14.142Z,51.50
2018-08-13T14:33:42.642Z,51.20
2018-08-13T14:36:11.131Z,51.00
2018-08-13T14:38:39.694Z,51.10
2018-08-13T14:41:08.070Z,51.20
2018-08-13T14:43:36.465Z,51.80
2018-08-13T14:46:04.995Z,53.10
2018-08-13T14:48:33.468Z,52.70
2018-08-13T14:51:01.821Z,56.20
2018-08-13T14:53:30.356Z,74.60
2018-08-13T14:55:59.051Z,84.50
2018-08-13T14:58:27.439Z,92.10
2018-08-13T15:00:56.264Z,93.00
2018-08-13T15:03:25.483Z,95.20
2018-08-13T15:05:54.055Z,93.60
2018-08-13T15:08:22.423Z,95.00
2018-08-13T15:10:50.821Z,94.30
2018-08-13T15:13:19.421Z,93.90
2018-08-13T15:15:47.690Z,91.50
2018-08-13T15:18:16.045Z,91.50
2018-08-13T15:20:44.518Z,92.70
2018-08-13T15:23:12.952Z,89.40
2018-08-13T15:25:41.424Z,91.00
2018-08-13T15:28:10.010Z,90.10
2018-08-13T15:30:38.431Z,91.60
2018-08-13T15:33:06.943Z,88.50
2018-08-13T15:35:35.343Z,91.40
2018-08-13T15:38:03.796Z,91.80
2018-08-13T15:40:32.286Z,88.30
2018-08-13T15:43:00.760Z,86.40
2018-08-13T15:45:29.289Z,85.30
2018-08-13T15:47:57.701Z,85.60
2018-08-13T15:50:26.192Z,87.10
2018-08-13T15:52:54.611Z,81.90
2018-08-13T15:55:23.609Z,86.50
2018-08-13T15:57:52.081Z,86.70
2018-08-13T16:00:23.493Z,85.60
2018-08-13T16:02:52.160Z,90.30
2018-08-13T16:05:21.091Z,91.60
2018-08-13T16:07:49.864Z,93.00
2018-08-13T16:10:18.634Z,92.30
2018-08-13T16:12:47.257Z,88.30
2018-08-13T16:15:15.805Z,88.90
2018-08-13T16:17:44.273Z,88.70
2018-08-13T16:20:16.081Z,90.00
2018-08-13T16:22:45.340Z,91.50
2018-08-13T16:25:14.197Z,92.60
2018-08-13T16:27:43.318Z,94.80
2018-08-13T16:30:25.986Z,93.20
2018-08-13T16:32:54.460Z,93.60
2018-08-13T16:35:23.866Z,93.20
2018-08-13T16:37:52.323Z,92.30
2018-08-13T16:40:21.968Z,93.40
2018-08-13T16:42:51.212Z,91.80
2018-08-13T16:45:21.062Z,93.00
2018-08-13T16:47:49.718Z,92.20
2018-08-13T16:50:31.774Z,94.50
2018-08-13T16:53:01.462Z,95.60
2018-08-13T16:55:31.231Z,96.30
2018-08-13T16:58:00.917Z,97.20
2018-08-13T17:00:30.424Z,97.00
2018-08-13T17:02:59.570Z,96.50
2018-08-13T17:05:29.735Z,97.00
2018-08-13T17:07:58.152Z,96.10
2018-08-13T17:10:27.867Z,95.60
2018-08-13T17:12:57.139Z,95.80
2018-08-13T17:15:27.699Z,95.90
2018-08-13T17:17:58.275Z,96.40
2018-08-13T17:20:30.936Z,95.30
2018-08-13T17:22:59.428Z,95.40
2018-08-13T17:25:28.044Z,94.60
2018-08-13T17:27:56.581Z,92.90
2018-08-13T17:30:25.855Z,92.70
2018-08-13T17:32:56.349Z,91.50
2018-08-13T17:35:29.633Z,93.40
2018-08-13T17:37:59.087Z,93.80
2018-08-13T17:40:28.000Z,93.20
2018-08-13T17:42:56.563Z,93.60
2018-08-13T17:45:25.231Z,93.00
2018-08-13T17:47:53.810Z,92.60
2018-08-13T17:50:22.849Z,93.20
2018-08-13T17:52:51.486Z,91.20
2018-08-13T17:55:20.216Z,91.20
2018-08-13T17:57:48.717Z,91.90
2018-08-13T18:00:22.064Z,92.20
2018-08-13T18:02:50.498Z,93.10
2018-08-13T18:05:22.670Z,93.00
2018-08-13T18:07:51.751Z,92.50
2018-08-13T18:10:30.756Z,90.80
2018-08-13T18:13:01.202Z,91.70
2018-08-13T18:15:30.172Z,91.30
2018-08-13T18:17:58.750Z,91.20
2018-08-13T18:20:27.332Z,90.30
2018-08-13T18:22:55.847Z,90.90
2018-08-13T18:25:24.292Z,91.30
2018-08-13T18:27:52.933Z,91.30
2018-08-13T18:30:24.246Z,90.80
2018-08-13T18:32:53.150Z,90.70
2018-08-13T18:35:21.845Z,91.00
2018-08-13T18:37:50.478Z,91.30
2018-08-13T18:40:23.941Z,91.30
2018-08-13T18:42:56.662Z,91.80
2018-08-13T18:45:25.323Z,92.40
2018-08-13T18:47:53.786Z,92.30
2018-08-13T18:50:23.000Z,92.30
2018-08-13T18:52:51.989Z,92.30
2018-08-13T18:55:22.923Z,92.60
2018-08-13T18:57:52.887Z,92.00
2018-08-13T19:00:25.631Z,92.80
2018-08-13T19:02:55.010Z,92.90
2018-08-13T19:05:23.730Z,92.70
2018-08-13T19:07:52.502Z,92.20
2018-08-13T19:10:21.657Z,92.50
2018-08-13T19:12:50.483Z,92.80
2018-08-13T19:15:22.117Z,92.40
2018-08-13T19:17:51.500Z,91.30
2018-08-13T19:20:21.003Z,92.00
2018-08-13T19:22:50.304Z,92.10
2018-08-13T19:25:22.286Z,92.30
2018-08-13T19:27:50.930Z,91.90
2018-08-13T19:30:20.797Z,91.80
2018-08-13T19:32:50.176Z,91.80
2018-08-13T19:35:18.924Z,92.10
2018-08-13T19:37:48.651Z,91.60
2018-08-13T19:40:20.114Z,91.60
2018-08-13T19:42:49.433Z,91.70
2018-08-13T19:45:20.645Z,92.20
2018-08-13T19:47:50.301Z,91.60
2018-08-13T19:50:19.678Z,91.60
2018-08-13T19:52:49.027Z,91.20
2018-08-13T19:55:20.213Z,92.20
2018-08-13T19:57:49.437Z,91.70
2018-08-13T20:00:26.170Z,92.00
2018-08-13T20:03:27.993Z,92.30
2018-08-13T20:05:58.236Z,91.30
2018-08-13T20:14:47.304Z,91.00
2018-08-13T20:17:16.163Z,91.40
2018-08-13T20:19:46.708Z,91.50
2018-08-13T20:22:15.798Z,91.40
2018-08-13T20:24:44.539Z,91.70
2018-08-13T20:27:13.366Z,91.70
2018-08-13T20:29:42.013Z,92.10
2018-08-13T20:32:10.753Z,92.20
2018-08-13T20:34:39.405Z,92.10
2018-08-13T20:37:08.269Z,91.90
2018-08-13T20:39:37.027Z,91.80
2018-08-13T20:42:06.021Z,91.80
2018-08-13T20:44:34.520Z,92.60
2018-08-13T20:47:03.131Z,92.40
2018-08-13T20:49:31.783Z,92.20
2018-08-13T20:52:01.624Z,92.10
2018-08-13T20:54:30.462Z,91.80
2018-08-13T20:56:59.046Z,92.20
2018-08-13T20:59:27.531Z,91.60
2018-08-13T21:01:56.091Z,90.90
2018-08-13T21:04:31.504Z,91.10
2018-08-13T21:07:00.028Z,91.10
2018-08-13T21:09:28.595Z,91.10
2018-08-13T21:11:57.099Z,91.10
2018-08-13T21:14:25.643Z,91.10
2018-08-13T21:16:54.347Z,91.10
2018-08-13T21:19:22.760Z,90.80
2018-08-13T21:21:51.312Z,91.00
2018-08-13T21:24:19.849Z,91.10
2018-08-13T21:26:51.164Z,91.10
2018-08-13T21:29:19.653Z,91.10
2018-08-13T21:31:49.792Z,90.50
2018-08-13T21:34:18.374Z,90.70
2018-08-13T21:36:46.909Z,90.40
2018-08-13T21:39:15.331Z,91.00
2018-08-13T21:41:43.830Z,91.80
2018-08-13T21:44:12.310Z,91.30
2018-08-13T21:46:40.729Z,91.40
2018-08-13T21:49:09.196Z,91.70
2018-08-13T21:51:37.591Z,91.40
2018-08-13T21:54:12.842Z,91.20
2018-08-13T21:56:41.204Z,91.20
2018-08-13T21:59:09.730Z,91.50
2018-08-13T22:01:43.871Z,91.50
2018-08-13T22:04:12.953Z,90.50
2018-08-13T22:06:41.372Z,90.70
2018-08-13T22:09:10.301Z,90.90
2018-08-13T22:11:38.749Z,90.50
2018-08-13T22:14:08.191Z,91.50
2018-08-13T22:16:36.660Z,90.10
2018-08-13T22:19:05.516Z,90.10
2018-08-13T22:21:34.010Z,89.30
2018-08-13T22:24:19.371Z,88.70
2018-08-13T22:26:54.353Z,89.40
2018-08-13T22:29:22.783Z,90.80
2018-08-13T22:31:51.210Z,90.40
2018-08-13T22:34:19.657Z,90.50
2018-08-13T22:36:48.082Z,90.40
2018-08-13T22:39:16.498Z,89.80
2018-08-13T22:41:44.913Z,90.10
2018-08-13T22:44:13.333Z,90.30
2018-08-13T22:46:41.701Z,90.90
2018-08-13T22:49:10.063Z,89.80
2018-08-13T22:51:38.507Z,89.40
2018-08-13T22:54:06.905Z,89.40
2018-08-13T22:56:35.294Z,88.70
2018-08-13T22:59:03.776Z,88.30
2018-08-13T23:01:32.173Z,88.20
2018-08-13T23:04:00.598Z,89.30
2018-08-13T23:06:29.046Z,88.80
2018-08-13T23:08:57.478Z,89.30
2018-08-13T23:11:25.979Z,89.10
2018-08-13T23:13:54.452Z,90.20
2018-08-13T23:16:22.950Z,90.00
2018-08-13T23:18:51.337Z,90.00
2018-08-13T23:21:19.831Z,89.90
2018-08-13T23:23:48.183Z,89.60
2018-08-13T23:26:16.587Z,90.00
2018-08-13T23:28:45.043Z,90.30
2018-08-13T23:31:13.445Z,89.90
2018-08-13T23:33:41.824Z,89.40
2018-08-13T23:36:10.274Z,90.50
2018-08-13T23:38:39.429Z,89.90
2018-08-13T23:41:08.918Z,90.30
2018-08-13T23:43:37.258Z,90.10
2018-08-13T23:46:05.766Z,89.60
2018-08-13T23:48:34.201Z,90.00
2018-08-13T23:51:02.622Z,90.50
2018-08-13T23:53:31.059Z,90.30
2018-08-13T23:55:59.448Z,90.70
2018-08-13T23:58:27.919Z,90.20
